Time;durP1;ratioP1;P1;durP2;ratioP2;P2;SDS_P1;SDS_P2;PMS_P1;PMS_P2;Temp;Humidity;BMP_temperature;BMP_pressure;BME280_temperature;BME280_humidity;BME280_pressure;Samples;Min_cycle;Max_cycle;Signal;HPM_P1;HPM_P2
2020/12/19 00:00:22;;;;;;;9.82;6.97;;;7.70;99.90;;;;;;5077151;28;20684;-82
2020/12/19 00:02:49;;;;;;;11.23;7.10;;;7.60;99.90;;;;;;5077299;28;20260;-82
2020/12/19 00:05:16;;;;;;;10.20;6.53;;;7.60;99.90;;;;;;5076712;28;20566;-82
2020/12/19 00:07:42;;;;;;;11.93;7.57;;;7.50;99.90;;;;;;5076868;28;20206;-83
2020/12/19 00:10:09;;;;;;;12.75;8.52;;;7.70;99.90;;;;;;5077374;28;20225;-82
2020/12/19 00:12:36;;;;;;;11.52;7.50;;;7.70;99.90;;;;;;5077641;28;20233;-82
2020/12/19 00:15:03;;;;;;;10.20;7.82;;;7.70;99.90;;;;;;5079408;28;20782;-82
2020/12/19 00:17:29;;;;;;;10.55;6.00;;;7.40;99.90;;;;;;5083286;28;20207;-82
2020/12/19 00:19:56;;;;;;;10.25;6.85;;;7.40;99.90;;;;;;5074678;28;20211;-82
2020/12/19 00:22:23;;;;;;;10.27;6.75;;;7.60;99.90;;;;;;5074379;28;20195;-82
2020/12/19 00:24:50;;;;;;;11.23;6.60;;;7.50;99.90;;;;;;5078404;28;20253;-82
2020/12/19 00:27:16;;;;;;;9.68;6.50;;;7.40;99.90;;;;;;5070473;28;20211;-82
2020/12/19 00:29:43;;;;;;;8.95;5.95;;;7.80;99.90;;;;;;5066018;28;20230;-83
2020/12/19 00:32:11;;;;;;;12.20;6.32;;;7.70;99.90;;;;;;5061762;28;20199;-82
2020/12/19 00:34:37;;;;;;;8.00;6.22;;;7.70;99.90;;;;;;5061432;28;20242;-82
2020/12/19 00:37:05;;;;;;;10.38;6.53;;;7.60;99.90;;;;;;5058261;28;20195;-81
2020/12/19 00:39:31;;;;;;;13.52;6.47;;;7.60;99.90;;;;;;5056173;28;20230;-82
2020/12/19 00:41:58;;;;;;;8.70;6.22;;;7.50;99.90;;;;;;5057227;28;20210;-83
2020/12/19 00:44:24;;;;;;;11.65;6.75;;;7.40;99.90;;;;;;5071175;28;20201;-82
2020/12/19 00:46:51;;;;;;;8.05;6.55;;;7.30;99.90;;;;;;5076100;28;20222;-82
2020/12/19 00:49:18;;;;;;;7.70;6.25;;;7.50;99.90;;;;;;5062110;28;20234;-82
2020/12/19 00:51:45;;;;;;;9.95;6.55;;;7.20;99.90;;;;;;5056335;28;20715;-82
2020/12/19 00:54:12;;;;;;;12.77;7.35;;;7.20;99.90;;;;;;5068542;28;20221;-82
2020/12/19 00:56:39;;;;;;;10.75;6.30;;;7.30;99.90;;;;;;5059997;28;20198;-82
2020/12/19 00:59:06;;;;;;;11.02;6.32;;;7.40;99.90;;;;;;5074808;28;20245;-83
2020/12/19 01:01:32;;;;;;;11.70;7.03;;;7.40;99.90;;;;;;5071833;28;20216;-83
2020/12/19 01:04:00;;;;;;;8.32;5.60;;;7.20;99.90;;;;;;5054055;28;20202;-83
2020/12/19 01:06:28;;;;;;;8.05;6.00;;;7.10;99.90;;;;;;5069423;28;20267;-83
2020/12/19 01:08:56;;;;;;;10.40;6.45;;;7.30;99.90;;;;;;5074185;28;20213;-82
2020/12/19 01:11:25;;;;;;;7.70;6.05;;;7.20;99.90;;;;;;5074930;28;20249;-83
2020/12/19 01:13:52;;;;;;;9.13;6.60;;;7.40;99.90;;;;;;5068412;28;20194;-83
2020/12/19 01:16:20;;;;;;;11.88;6.22;;;7.30;99.90;;;;;;5074018;28;20673;-83
2020/12/19 01:18:50;;;;;;;7.60;5.38;;;7.10;99.90;;;;;;5062455;28;20202;-82
2020/12/19 01:21:18;;;;;;;9.48;6.35;;;7.00;99.90;;;;;;5074110;28;20244;-83
2020/12/19 01:23:45;;;;;;;10.43;6.50;;;7.10;99.90;;;;;;5079200;28;20221;-83
2020/12/19 01:26:13;;;;;;;8.95;6.03;;;7.30;99.90;;;;;;5086994;28;20217;-82
2020/12/19 01:28:41;;;;;;;8.82;6.18;;;7.30;99.90;;;;;;5079851;28;20202;-82
2020/12/19 01:31:09;;;;;;;7.40;6.03;;;7.30;99.90;;;;;;5078398;28;20209;-84
2020/12/19 01:33:36;;;;;;;10.75;6.15;;;7.30;99.90;;;;;;5068768;28;20279;-83
2020/12/19 01:36:03;;;;;;;8.20;6.30;;;7.30;99.90;;;;;;5060670;28;20289;-83
2020/12/19 01:38:30;;;;;;;8.52;5.93;;;7.30;99.90;;;;;;5068730;28;20629;-83
2020/12/19 01:40:57;;;;;;;7.57;5.85;;;7.30;99.90;;;;;;5065210;28;20229;-83
2020/12/19 01:43:24;;;;;;;9.13;6.13;;;7.40;99.90;;;;;;5055749;28;20300;-83
2020/12/19 01:45:52;;;;;;;10.00;6.85;;;7.20;99.90;;;;;;5074203;28;20612;-83
2020/12/19 01:48:22;;;;;;;8.38;6.10;;;7.10;99.90;;;;;;5061806;28;20237;-83
2020/12/19 01:50:50;;;;;;;8.88;6.22;;;7.30;99.90;;;;;;5068779;28;20699;-83
2020/12/19 01:53:19;;;;;;;8.68;6.00;;;7.10;99.90;;;;;;5073917;28;20239;-83
2020/12/19 01:55:46;;;;;;;9.65;6.55;;;7.20;99.90;;;;;;5070556;28;20210;-82
2020/12/19 01:58:13;;;;;;;8.27;5.78;;;7.10;99.90;;;;;;5064170;28;20206;-83
2020/12/19 02:00:40;;;;;;;9.98;6.10;;;7.10;99.90;;;;;;5072640;28;20837;-83
2020/12/19 02:03:08;;;;;;;8.27;5.95;;;7.00;99.90;;;;;;5053754;28;20206;-82
2020/12/19 02:05:37;;;;;;;9.48;6.03;;;7.00;99.90;;;;;;5061293;28;20223;-82
2020/12/19 02:08:05;;;;;;;9.10;6.20;;;6.90;99.90;;;;;;5082003;28;20676;-82
2020/12/19 02:10:32;;;;;;;9.27;6.30;;;6.90;99.90;;;;;;5080596;28;20222;-82
2020/12/19 02:12:59;;;;;;;10.65;5.93;;;7.10;99.90;;;;;;5070100;28;20202;-82
2020/12/19 02:15:26;;;;;;;10.43;6.32;;;7.00;99.90;;;;;;5061669;28;20206;-82
2020/12/19 02:17:52;;;;;;;6.57;5.15;;;6.90;99.90;;;;;;5075317;28;20208;-83
2020/12/19 02:20:20;;;;;;;9.55;5.90;;;6.90;99.90;;;;;;5075360;28;20226;-83
2020/12/19 02:22:47;;;;;;;9.32;6.40;;;7.10;99.90;;;;;;5078338;28;20224;-82
2020/12/19 02:25:14;;;;;;;10.32;6.15;;;7.00;99.90;;;;;;5077580;28;20221;-82
2020/12/19 02:27:41;;;;;;;9.50;5.40;;;7.20;99.90;;;;;;5078482;28;20201;-82
2020/12/19 02:30:07;;;;;;;7.32;5.10;;;7.00;99.90;;;;;;5067798;28;21000;-83
2020/12/19 02:32:34;;;;;;;7.55;5.70;;;6.90;99.90;;;;;;5070041;28;20202;-82
2020/12/19 02:35:00;;;;;;;9.18;5.88;;;7.00;99.90;;;;;;5078590;28;20212;-83
2020/12/19 02:37:27;;;;;;;8.23;5.93;;;7.00;99.90;;;;;;5079778;28;20580;-83
2020/12/19 02:39:53;;;;;;;9.38;5.50;;;7.10;99.90;;;;;;5078225;28;20365;-83
2020/12/19 02:42:21;;;;;;;9.80;6.10;;;6.90;99.90;;;;;;5080280;28;20214;-83
2020/12/19 02:44:47;;;;;;;8.40;6.15;;;6.90;99.90;;;;;;5062457;28;20820;-83
2020/12/19 02:47:14;;;;;;;10.65;6.25;;;7.20;99.90;;;;;;5063254;28;20246;-82
2020/12/19 02:49:40;;;;;;;9.15;6.15;;;7.00;99.90;;;;;;5079932;28;20264;-82
2020/12/19 02:52:07;;;;;;;8.32;6.43;;;7.00;99.90;;;;;;5075588;28;20202;-83
2020/12/19 02:54:33;;;;;;;7.78;5.72;;;6.90;99.90;;;;;;5062364;28;20222;-83
2020/12/19 02:57:00;;;;;;;8.23;4.97;;;7.00;99.90;;;;;;5062437;28;20202;-76
2020/12/19 02:59:27;;;;;;;7.80;5.60;;;6.90;99.90;;;;;;5075146;28;20265;-76
2020/12/19 03:01:54;;;;;;;8.32;5.72;;;7.00;99.90;;;;;;5070334;28;20209;-76
2020/12/19 03:04:20;;;;;;;8.02;5.35;;;7.00;99.90;;;;;;5072766;28;20212;-75
2020/12/19 03:06:47;;;;;;;7.50;5.20;;;7.00;99.90;;;;;;5055848;28;20219;-76
2020/12/19 03:09:13;;;;;;;7.13;5.05;;;7.10;99.90;;;;;;5052625;28;20598;-76
2020/12/19 03:11:40;;;;;;;11.52;5.50;;;7.20;99.90;;;;;;5067644;28;20210;-76
2020/12/19 03:14:06;;;;;;;7.68;5.03;;;6.90;99.90;;;;;;5072306;28;20668;-76
2020/12/19 03:16:34;;;;;;;8.05;5.00;;;6.90;99.90;;;;;;5058971;28;20222;-76
2020/12/19 03:19:00;;;;;;;7.03;5.20;;;6.90;99.90;;;;;;5052494;28;20237;-76
2020/12/19 03:21:26;;;;;;;7.85;4.80;;;6.90;99.90;;;;;;5071966;28;20241;-76
2020/12/19 03:23:53;;;;;;;7.32;5.38;;;7.00;99.90;;;;;;5074560;28;20206;-82
2020/12/19 03:26:19;;;;;;;7.75;5.50;;;6.90;99.90;;;;;;5059804;28;20232;-82
2020/12/19 03:28:46;;;;;;;8.40;4.63;;;6.90;99.90;;;;;;5061487;28;20202;-82
2020/12/19 03:31:13;;;;;;;8.95;5.90;;;6.70;99.90;;;;;;5069274;28;20217;-77
2020/12/19 03:33:40;;;;;;;8.45;5.65;;;6.90;99.90;;;;;;5057939;28;20334;-77
2020/12/19 03:36:06;;;;;;;10.60;5.47;;;6.70;99.90;;;;;;5072143;28;20220;-77
2020/12/19 03:38:33;;;;;;;8.70;5.38;;;6.90;99.90;;;;;;5071490;28;20202;-77
2020/12/19 03:41:00;;;;;;;8.63;5.03;;;6.60;99.90;;;;;;5073112;28;20222;-78
2020/12/19 03:43:27;;;;;;;8.95;4.90;;;6.70;99.90;;;;;;5073246;28;20217;-78
2020/12/19 03:45:54;;;;;;;8.73;5.72;;;6.50;99.90;;;;;;5075223;28;20688;-77
2020/12/19 03:48:20;;;;;;;9.55;5.70;;;6.50;99.90;;;;;;5054051;28;20211;-76
2020/12/19 03:50:48;;;;;;;7.88;5.10;;;6.60;99.90;;;;;;5064716;28;20273;-77
2020/12/19 03:53:14;;;;;;;9.88;5.78;;;6.40;99.90;;;;;;5052395;28;20210;-84
2020/12/19 03:55:41;;;;;;;8.75;5.85;;;6.50;99.90;;;;;;5061776;28;20195;-78
2020/12/19 03:58:08;;;;;;;8.35;5.07;;;6.50;99.90;;;;;;5066635;28;20262;-77
2020/12/19 04:00:35;;;;;;;6.57;5.05;;;6.20;99.90;;;;;;5064249;28;20625;-76
2020/12/19 04:03:02;;;;;;;7.40;5.13;;;6.30;99.90;;;;;;5064745;28;20203;-77
2020/12/19 04:05:28;;;;;;;7.53;5.28;;;6.50;99.90;;;;;;5067637;28;20218;-81
2020/12/19 04:07:55;;;;;;;6.75;4.93;;;6.50;99.90;;;;;;5065821;28;20264;-83
2020/12/19 04:10:22;;;;;;;7.25;5.13;;;6.40;99.90;;;;;;5058977;28;20218;-77
2020/12/19 04:12:48;;;;;;;7.85;5.00;;;6.30;99.90;;;;;;5059461;28;20213;-82
2020/12/19 04:15:22;;;;;;;7.00;5.57;;;6.20;99.90;;;;;;5065664;28;20210;-82
2020/12/19 04:17:49;;;;;;;9.82;5.55;;;6.40;99.90;;;;;;5063280;28;20288;-82
2020/12/19 04:20:16;;;;;;;7.53;5.22;;;6.10;99.90;;;;;;5072529;28;20236;-82
2020/12/19 04:22:42;;;;;;;7.10;5.18;;;6.20;99.90;;;;;;5074788;28;20216;-83
2020/12/19 04:25:10;;;;;;;6.63;4.85;;;6.30;99.90;;;;;;5080723;28;20240;-82
2020/12/19 04:27:37;;;;;;;8.48;5.07;;;6.40;99.90;;;;;;5065563;28;20205;-83
2020/12/19 04:30:05;;;;;;;8.20;5.28;;;6.40;99.90;;;;;;5057997;28;20229;-83
2020/12/19 04:32:31;;;;;;;7.07;5.15;;;6.60;99.90;;;;;;5060893;28;20198;-83
2020/12/19 04:34:58;;;;;;;7.05;4.63;;;6.40;99.90;;;;;;5060562;28;20217;-83
2020/12/19 04:37:25;;;;;;;7.10;4.50;;;6.30;99.90;;;;;;5066491;28;20249;-84
2020/12/19 04:39:51;;;;;;;7.28;5.40;;;6.20;99.90;;;;;;5074083;28;20229;-83
2020/12/19 04:42:20;;;;;;;7.82;4.63;;;6.10;99.90;;;;;;5084753;28;20201;-83
2020/12/19 04:44:47;;;;;;;9.50;4.88;;;6.00;99.90;;;;;;5084286;28;20216;-83
2020/12/19 04:47:14;;;;;;;7.20;4.97;;;6.10;99.90;;;;;;5086648;28;20249;-83
2020/12/19 04:49:43;;;;;;;10.80;6.13;;;6.00;99.90;;;;;;5081271;28;20241;-83
2020/12/19 04:52:10;;;;;;;9.07;5.53;;;6.10;99.90;;;;;;5074380;28;20672;-83
2020/12/19 04:54:37;;;;;;;6.15;4.57;;;5.90;99.90;;;;;;5076555;28;20336;-83
2020/12/19 04:57:04;;;;;;;8.98;5.10;;;6.30;99.90;;;;;;5073905;28;20198;-83
2020/12/19 04:59:32;;;;;;;8.40;5.13;;;6.20;99.90;;;;;;5074387;28;20234;-83
2020/12/19 05:02:00;;;;;;;7.40;5.25;;;6.20;99.90;;;;;;5073696;28;20209;-83
2020/12/19 05:04:28;;;;;;;9.23;5.20;;;6.10;99.90;;;;;;5073196;28;20795;-83
2020/12/19 05:06:54;;;;;;;6.60;4.97;;;6.00;99.90;;;;;;5093133;28;20234;-83
2020/12/19 05:09:21;;;;;;;7.93;5.53;;;6.00;99.90;;;;;;5080768;28;20313;-83
2020/12/19 05:11:48;;;;;;;8.75;4.72;;;6.10;99.90;;;;;;5063833;28;20206;-82
2020/12/19 05:14:14;;;;;;;7.22;4.90;;;6.10;99.90;;;;;;5083983;28;20275;-83
2020/12/19 05:16:42;;;;;;;7.18;5.15;;;6.00;99.90;;;;;;5079886;28;20205;-84
2020/12/19 05:19:10;;;;;;;7.22;4.80;;;6.10;99.90;;;;;;5073482;28;20237;-84
2020/12/19 05:21:44;;;;;;;6.50;4.45;;;6.00;99.90;;;;;;5074569;28;20205;-84
2020/12/19 05:24:14;;;;;;;8.15;5.78;;;6.00;99.90;;;;;;5074209;28;20214;-84
2020/12/19 05:26:40;;;;;;;6.63;4.22;;;5.80;99.90;;;;;;5066942;28;20244;-84
2020/12/19 05:29:07;;;;;;;7.38;5.45;;;6.00;99.90;;;;;;5053724;28;20241;-84
2020/12/19 05:31:34;;;;;;;8.60;5.45;;;5.80;99.90;;;;;;5054107;28;20225;-85
2020/12/19 05:34:02;;;;;;;11.68;5.18;;;5.80;99.90;;;;;;5058690;28;20206;-84
2020/12/19 05:36:29;;;;;;;7.45;5.00;;;5.70;99.90;;;;;;5062531;28;20220;-83
2020/12/19 05:39:01;;;;;;;7.85;5.13;;;5.70;99.90;;;;;;5063583;28;20217;-83
2020/12/19 05:41:27;;;;;;;6.85;4.85;;;5.70;99.90;;;;;;5063521;28;20233;-83
2020/12/19 05:43:54;;;;;;;7.88;5.35;;;5.80;99.90;;;;;;5064650;28;20207;-83
2020/12/19 05:46:29;;;;;;;8.70;5.25;;;5.70;99.90;;;;;;5063050;28;20317;-83
2020/12/19 05:48:56;;;;;;;7.53;4.85;;;5.70;99.90;;;;;;5062457;28;20202;-83
2020/12/19 05:51:26;;;;;;;8.38;4.85;;;6.10;99.90;;;;;;5057404;28;20217;-84
2020/12/19 05:53:53;;;;;;;8.15;4.57;;;6.00;99.90;;;;;;5054001;28;20207;-84
2020/12/19 05:56:20;;;;;;;8.23;4.75;;;6.00;99.90;;;;;;5062375;28;20198;-84
2020/12/19 05:58:48;;;;;;;9.45;5.05;;;6.20;99.90;;;;;;5073950;28;20252;-84
2020/12/19 06:01:16;;;;;;;7.47;4.65;;;6.00;99.90;;;;;;5090363;28;20201;-83
2020/12/19 06:03:45;;;;;;;7.88;4.97;;;5.70;99.90;;;;;;5091845;28;20739;-83
2020/12/19 06:06:13;;;;;;;7.97;5.45;;;6.00;99.90;;;;;;5093272;28;20265;-84
2020/12/19 06:08:41;;;;;;;7.05;4.88;;;5.70;99.90;;;;;;5092144;28;20213;-84
2020/12/19 06:11:14;;;;;;;7.07;4.82;;;5.70;99.90;;;;;;5074319;28;20278;-84
2020/12/19 06:13:45;;;;;;;6.82;4.82;;;5.40;99.90;;;;;;5060867;28;20221;-84
2020/12/19 06:16:13;;;;;;;9.48;5.43;;;5.70;99.90;;;;;;5059748;28;20209;-83
2020/12/19 06:18:55;;;;;;;7.65;5.60;;;5.60;99.90;;;;;;5057134;28;20210;-83
2020/12/19 06:21:22;;;;;;;7.00;4.82;;;5.80;99.90;;;;;;5081009;28;20235;-84
2020/12/19 06:23:49;;;;;;;5.70;3.60;;;5.80;99.90;;;;;;5082085;28;20206;-83
2020/12/19 06:26:15;;;;;;;9.02;4.32;;;5.80;99.90;;;;;;5079600;28;20621;-83
2020/12/19 06:28:47;;;;;;;9.40;5.03;;;5.50;99.90;;;;;;5080697;28;20210;-83
2020/12/19 06:31:16;;;;;;;8.32;5.88;;;5.50;99.90;;;;;;5088904;28;20216;-83
2020/12/19 06:33:46;;;;;;;9.98;5.47;;;5.40;99.90;;;;;;5090784;28;20252;-82
2020/12/19 06:36:20;;;;;;;12.23;6.43;;;5.30;99.90;;;;;;5088918;28;20206;-84
2020/12/19 06:38:49;;;;;;;14.75;6.80;;;5.30;99.90;;;;;;5086789;28;20269;-83
2020/12/19 06:41:45;;;;;;;9.73;6.57;;;5.50;99.90;;;;;;5086445;28;20220;-83
2020/12/19 06:44:14;;;;;;;10.25;5.95;;;5.30;99.90;;;;;;5073591;28;20218;-83
2020/12/19 06:46:40;;;;;;;7.80;5.53;;;5.60;99.90;;;;;;5067833;28;20230;-83
2020/12/19 06:49:26;;;;;;;6.95;5.40;;;5.70;99.90;;;;;;5067652;28;20222;-83
2020/12/19 06:52:10;;;;;;;13.30;5.75;;;5.80;99.90;;;;;;5086973;28;20201;-83
2020/12/19 06:54:39;;;;;;;8.50;4.95;;;5.80;99.90;;;;;;5087427;28;20277;-83
2020/12/19 06:57:20;;;;;;;9.23;5.03;;;5.80;99.90;;;;;;5086513;28;20209;-83
2020/12/19 06:59:47;;;;;;;10.05;5.70;;;5.70;99.90;;;;;;5080351;28;20234;-84
2020/12/19 07:02:15;;;;;;;7.80;5.10;;;5.70;99.90;;;;;;5066846;28;20206;-83
2020/12/19 07:04:42;;;;;;;13.68;5.55;;;5.80;99.90;;;;;;5067226;28;20210;-83
2020/12/19 07:07:10;;;;;;;7.82;5.47;;;5.60;99.90;;;;;;5072232;28;20246;-83
2020/12/19 07:09:38;;;;;;;7.63;5.20;;;5.40;99.90;;;;;;5071635;28;20260;-83
2020/12/19 07:12:05;;;;;;;7.80;5.20;;;5.50;99.90;;;;;;5066184;28;20229;-83
2020/12/19 07:14:42;;;;;;;11.48;5.85;;;5.60;99.90;;;;;;5066032;28;20202;-83
2020/12/19 07:17:18;;;;;;;7.15;5.00;;;5.80;99.90;;;;;;5066524;28;20199;-84
2020/12/19 07:19:46;;;;;;;7.80;5.40;;;5.70;99.90;;;;;;5072384;28;20389;-83
2020/12/19 07:22:13;;;;;;;9.38;6.10;;;5.50;99.90;;;;;;5086164;28;20216;-83
2020/12/19 07:24:40;;;;;;;9.07;6.05;;;5.70;99.90;;;;;;5086642;28;20206;-83
2020/12/19 07:27:07;;;;;;;9.73;5.70;;;5.50;99.90;;;;;;5086584;28;20285;-83
2020/12/19 07:29:34;;;;;;;10.18;5.75;;;5.70;99.90;;;;;;5086200;28;20237;-84
2020/12/19 07:32:01;;;;;;;9.88;6.45;;;5.60;99.90;;;;;;5086559;28;20205;-83
2020/12/19 07:34:29;;;;;;;12.18;6.07;;;5.50;99.90;;;;;;5068595;28;20286;-84
2020/12/19 07:36:56;;;;;;;7.97;5.10;;;5.70;99.90;;;;;;5062602;28;20211;-84
2020/12/19 07:39:24;;;;;;;10.82;5.97;;;5.60;99.90;;;;;;5066452;28;20230;-83
2020/12/19 07:42:05;;;;;;;9.75;6.15;;;5.60;99.90;;;;;;5065148;28;20220;-83
2020/12/19 07:44:32;;;;;;;7.82;5.47;;;5.50;99.90;;;;;;5060528;28;20203;-83
2020/12/19 07:47:01;;;;;;;8.35;5.78;;;5.50;99.90;;;;;;5062318;28;20223;-83
2020/12/19 07:49:33;;;;;;;12.73;7.85;;;5.70;99.90;;;;;;5065358;28;20870;-83
2020/12/19 07:52:11;;;;;;;11.63;7.05;;;5.80;99.90;;;;;;5081934;28;20210;-84
2020/12/19 07:54:38;;;;;;;8.30;5.65;;;5.60;99.90;;;;;;5082223;28;20206;-83
2020/12/19 07:57:07;;;;;;;13.13;5.95;;;5.50;99.90;;;;;;5082841;28;20222;-84
2020/12/19 07:59:36;;;;;;;9.70;6.57;;;5.60;99.90;;;;;;5084888;28;20289;-83
2020/12/19 08:02:04;;;;;;;9.68;7.03;;;5.60;99.90;;;;;;5088746;28;20206;-83
2020/12/19 08:04:31;;;;;;;10.20;5.88;;;5.60;99.90;;;;;;5082417;28;20236;-84
2020/12/19 08:06:59;;;;;;;8.10;6.03;;;5.80;99.90;;;;;;5081028;28;20272;-83
2020/12/19 08:09:26;;;;;;;9.45;6.97;;;5.70;99.90;;;;;;5077048;28;20613;-85
2020/12/19 08:11:53;;;;;;;9.55;6.10;;;5.80;99.90;;;;;;5075189;28;20301;-84
2020/12/19 08:14:21;;;;;;;10.27;6.63;;;5.80;99.90;;;;;;5075900;28;20576;-84
2020/12/19 08:16:51;;;;;;;12.18;6.00;;;5.90;99.90;;;;;;5076116;28;20202;-84
2020/12/19 08:19:23;;;;;;;10.35;6.78;;;5.90;99.90;;;;;;5077610;28;20263;-84
2020/12/19 08:21:58;;;;;;;10.07;6.60;;;6.00;99.90;;;;;;5087667;28;20669;-83
2020/12/19 08:24:25;;;;;;;12.70;7.50;;;6.10;99.90;;;;;;5080262;28;20217;-85
2020/12/19 08:27:33;;;;;;;11.07;7.60;;;6.10;99.90;;;;;;5077256;28;20217;-85
2020/12/19 08:30:17;;;;;;;13.05;8.02;;;6.00;99.90;;;;;;5078127;28;20236;-84
2020/12/19 08:32:46;;;;;;;15.93;8.07;;;6.10;99.90;;;;;;5078568;28;20205;-84
2020/12/19 08:35:24;;;;;;;14.77;8.18;;;6.20;99.90;;;;;;5080355;28;20822;-83
2020/12/19 08:37:52;;;;;;;11.13;7.63;;;6.20;99.90;;;;;;5077915;28;20202;-83
2020/12/19 08:40:20;;;;;;;12.65;8.10;;;6.30;99.90;;;;;;5068265;28;20302;-85
2020/12/19 08:42:47;;;;;;;14.23;8.77;;;6.10;99.90;;;;;;5079643;28;20202;-85
2020/12/19 08:45:23;;;;;;;10.88;7.72;;;6.20;99.90;;;;;;5078566;28;20205;-84
2020/12/19 08:47:52;;;;;;;10.93;7.68;;;6.40;99.90;;;;;;5079081;28;20225;-83
2020/12/19 08:50:23;;;;;;;11.13;7.93;;;6.60;99.90;;;;;;5082809;28;20328;-83
2020/12/19 08:53:13;;;;;;;12.93;8.30;;;6.70;99.90;;;;;;5078313;28;20236;-84
2020/12/19 08:55:40;;;;;;;13.95;8.52;;;6.70;99.90;;;;;;5076324;28;20209;-84
2020/12/19 08:58:07;;;;;;;12.52;8.45;;;6.90;99.90;;;;;;5055954;28;20416;-85
2020/12/19 09:00:37;;;;;;;14.10;8.93;;;6.70;99.90;;;;;;5055258;28;20708;-84
2020/12/19 09:03:08;;;;;;;11.93;8.77;;;7.00;99.90;;;;;;5063781;28;20202;-84
2020/12/19 09:05:42;;;;;;;12.75;8.95;;;6.70;99.90;;;;;;5063462;28;20214;-84
2020/12/19 09:08:10;;;;;;;10.65;7.40;;;7.20;99.90;;;;;;5064458;28;20191;-84
2020/12/19 09:10:38;;;;;;;15.05;8.30;;;6.90;99.90;;;;;;5063488;28;20225;-84
2020/12/19 09:13:13;;;;;;;10.88;7.25;;;7.20;99.90;;;;;;5073807;28;20209;-84
2020/12/19 09:15:41;;;;;;;14.85;8.35;;;7.30;99.90;;;;;;5076051;28;20271;-84
2020/12/19 09:18:15;;;;;;;17.27;8.93;;;7.10;99.90;;;;;;5076743;28;20205;-84
2020/12/19 09:20:42;;;;;;;15.40;8.48;;;7.10;99.90;;;;;;5080170;28;20275;-83
2020/12/19 09:23:09;;;;;;;13.88;8.00;;;7.10;99.90;;;;;;5078077;28;20218;-83
2020/12/19 09:25:35;;;;;;;12.00;9.35;;;7.30;99.90;;;;;;5076592;28;20247;-84
2020/12/19 09:28:02;;;;;;;11.00;8.02;;;7.50;99.90;;;;;;5075802;28;20259;-83
2020/12/19 09:30:28;;;;;;;14.73;9.15;;;7.60;99.90;;;;;;5076344;28;20316;-83
2020/12/19 09:32:57;;;;;;;13.95;8.30;;;8.00;99.90;;;;;;5077431;28;20242;-83
2020/12/19 09:35:25;;;;;;;13.90;9.55;;;7.90;99.90;;;;;;5083515;28;20210;-83
2020/12/19 09:37:54;;;;;;;11.15;8.55;;;7.80;99.90;;;;;;5085316;28;20233;-83
2020/12/19 09:40:21;;;;;;;15.63;9.55;;;7.90;99.90;;;;;;5082709;28;20240;-83
2020/12/19 09:42:48;;;;;;;16.42;8.57;;;7.80;99.90;;;;;;5083389;28;20241;-82
2020/12/19 09:45:14;;;;;;;13.45;9.10;;;8.10;99.90;;;;;;5075088;28;20221;-83
2020/12/19 09:47:41;;;;;;;11.30;8.50;;;8.10;99.90;;;;;;5078126;28;20233;-82
2020/12/19 09:50:10;;;;;;;12.00;9.00;;;8.10;99.90;;;;;;5077348;28;20670;-82
2020/12/19 09:52:37;;;;;;;12.50;9.00;;;8.20;99.90;;;;;;5077337;28;20201;-83
2020/12/19 09:55:05;;;;;;;18.55;11.25;;;8.30;99.90;;;;;;5082039;28;20213;-83
2020/12/19 09:57:31;;;;;;;19.13;10.00;;;8.10;99.90;;;;;;5084810;28;20202;-84
2020/12/19 09:59:58;;;;;;;18.20;9.75;;;8.50;99.90;;;;;;5086272;28;20274;-84
2020/12/19 10:02:25;;;;;;;15.43;9.55;;;8.40;99.90;;;;;;5083847;28;20201;-82
2020/12/19 10:04:52;;;;;;;14.55;9.85;;;8.50;99.90;;;;;;5090832;28;20257;-83
2020/12/19 10:07:22;;;;;;;11.70;8.90;;;8.60;99.90;;;;;;5088750;28;20471;-83
2020/12/19 10:09:49;;;;;;;18.88;10.18;;;8.60;99.90;;;;;;5090292;28;20249;-83
2020/12/19 10:12:17;;;;;;;13.80;10.38;;;8.60;99.90;;;;;;5085950;28;20217;-84
2020/12/19 10:14:46;;;;;;;13.45;9.57;;;8.70;99.90;;;;;;5082342;28;20258;-84
2020/12/19 10:17:12;;;;;;;13.13;9.10;;;8.90;99.90;;;;;;5081793;28;20197;-85
2020/12/19 10:19:40;;;;;;;13.68;9.07;;;8.80;99.90;;;;;;5081959;28;20722;-84
2020/12/19 10:22:07;;;;;;;15.23;10.43;;;9.00;99.90;;;;;;5084862;28;20648;-83
2020/12/19 10:24:34;;;;;;;14.77;10.07;;;9.00;99.90;;;;;;5089075;28;20206;-84
2020/12/19 10:27:01;;;;;;;12.93;9.65;;;9.20;99.90;;;;;;5088886;28;20293;-83
2020/12/19 10:29:32;;;;;;;16.13;10.13;;;9.10;99.90;;;;;;5087314;28;20226;-84
2020/12/19 10:31:59;;;;;;;14.57;9.30;;;9.50;99.90;;;;;;5087057;28;20202;-84
2020/12/19 10:34:25;;;;;;;12.40;9.55;;;9.40;99.90;;;;;;5079450;28;20461;-84
2020/12/19 10:36:52;;;;;;;12.32;10.13;;;9.30;99.90;;;;;;5089687;28;20193;-83
2020/12/19 10:39:19;;;;;;;12.05;9.93;;;9.40;99.90;;;;;;5098430;28;20213;-83
2020/12/19 10:41:50;;;;;;;17.50;10.10;;;9.30;99.90;;;;;;5092113;28;20210;-83
2020/12/19 10:44:17;;;;;;;12.50;7.95;;;9.40;99.90;;;;;;5091208;28;20217;-83
2020/12/19 10:46:44;;;;;;;10.95;8.70;;;9.40;99.90;;;;;;5086995;28;20232;-83
2020/12/19 10:49:10;;;;;;;18.63;9.90;;;9.50;99.90;;;;;;5089239;28;20301;-83
2020/12/19 10:51:40;;;;;;;10.32;8.13;;;9.60;99.90;;;;;;5082455;28;20448;-84
2020/12/19 10:54:15;;;;;;;15.07;8.70;;;9.70;99.90;;;;;;5066128;28;20356;-83
2020/12/19 10:56:54;;;;;;;12.80;8.60;;;9.80;99.90;;;;;;5066859;28;20343;-84
2020/12/19 10:59:21;;;;;;;12.67;9.23;;;9.90;99.90;;;;;;5066863;28;20263;-83
2020/12/19 11:01:47;;;;;;;14.05;8.65;;;10.00;99.90;;;;;;5062445;28;20441;-81
2020/12/19 11:04:14;;;;;;;10.27;8.05;;;10.20;99.90;;;;;;5063180;28;20210;-82
2020/12/19 11:06:40;;;;;;;13.77;7.57;;;10.30;99.90;;;;;;5061373;28;20244;-82
2020/12/19 11:09:07;;;;;;;10.00;8.40;;;10.40;99.90;;;;;;5060797;28;20481;-83
2020/12/19 11:11:34;;;;;;;11.10;7.27;;;10.50;99.90;;;;;;5074426;28;20452;-82
2020/12/19 11:14:01;;;;;;;8.33;6.13;;;10.60;99.90;;;;;;5080302;28;20452;-82
2020/12/19 11:16:29;;;;;;;6.97;5.07;;;10.80;99.90;;;;;;5078976;28;20430;-82
2020/12/19 11:18:57;;;;;;;8.80;5.70;;;10.90;99.90;;;;;;5079066;28;20467;-82
2020/12/19 11:21:24;;;;;;;10.60;5.53;;;11.10;99.90;;;;;;5081451;28;20459;-83
2020/12/19 11:23:51;;;;;;;8.27;5.10;;;11.10;99.90;;;;;;5082127;28;20461;-83
2020/12/19 11:26:19;;;;;;;7.53;4.03;;;11.20;99.90;;;;;;5062683;28;20481;-83
2020/12/19 11:28:48;;;;;;;7.27;3.80;;;11.30;99.90;;;;;;5066292;28;20459;-83
2020/12/19 11:31:16;;;;;;;8.90;4.63;;;11.40;99.90;;;;;;5066449;28;20452;-82
2020/12/19 11:33:42;;;;;;;7.97;4.40;;;11.50;99.90;;;;;;5066639;28;20449;-82
2020/12/19 11:36:10;;;;;;;6.70;4.20;;;11.50;99.90;;;;;;5060419;28;20792;-82
2020/12/19 11:38:36;;;;;;;7.03;4.70;;;11.60;99.90;;;;;;5061224;28;20479;-83
2020/12/19 11:41:03;;;;;;;9.00;4.90;;;11.70;99.90;;;;;;5072717;28;20451;-83
2020/12/19 11:43:30;;;;;;;8.63;5.73;;;11.70;99.90;;;;;;5081452;28;20418;-82
2020/12/19 11:45:58;;;;;;;10.13;5.07;;;11.80;99.90;;;;;;5081842;28;20494;-83
2020/12/19 11:48:26;;;;;;;7.40;4.30;;;11.80;99.90;;;;;;5085431;28;20455;-82
2020/12/19 11:50:53;;;;;;;7.60;4.67;;;11.90;99.90;;;;;;5091210;22;20511;-82
2020/12/19 11:53:19;;;;;;;7.10;4.00;;;11.90;99.90;;;;;;5059653;28;20543;-83
2020/12/19 11:55:46;;;;;;;7.40;3.70;;;12.00;99.90;;;;;;5066315;28;20441;-81
2020/12/19 11:58:13;;;;;;;11.63;4.60;;;12.10;99.90;;;;;;5065687;28;20503;-82
2020/12/19 12:00:39;;;;;;;8.43;4.50;;;12.30;99.90;;;;;;5067700;28;20448;-81
2020/12/19 12:03:07;;;;;;;8.53;5.20;;;12.30;99.90;;;;;;5068156;28;20468;-84
2020/12/19 12:05:35;;;;;;;8.20;4.70;;;12.50;99.90;;;;;;5068383;28;20431;-83
2020/12/19 12:08:01;;;;;;;11.33;5.43;;;12.60;99.80;;;;;;5062378;28;20539;-85
2020/12/19 12:10:28;;;;;;;8.43;4.67;;;12.80;99.70;;;;;;5059737;28;20479;-83
2020/12/19 12:12:55;;;;;;;9.23;3.93;;;12.90;99.50;;;;;;5059024;28;20423;-84
2020/12/19 12:15:21;;;;;;;6.90;4.67;;;13.10;99.20;;;;;;5058371;28;20453;-84
2020/12/19 12:17:48;;;;;;;6.80;4.60;;;13.20;98.60;;;;;;5059087;28;20428;-85
2020/12/19 12:20:16;;;;;;;7.10;4.20;;;13.20;98.50;;;;;;5059923;28;20482;-83
2020/12/19 12:22:44;;;;;;;6.80;2.33;;;13.30;97.90;;;;;;5023040;28;20446;-83
2020/12/19 12:25:11;;;;;;;6.20;3.30;;;13.30;96.80;;;;;;5039894;28;20917;-85
2020/12/19 12:27:37;;;;;;;4.70;2.30;;;13.30;96.90;;;;;;5039422;28;20845;-83
2020/12/19 12:30:04;;;;;;;7.43;2.37;;;13.40;96.70;;;;;;5038000;28;20450;-85
2020/12/19 12:32:31;;;;;;;4.93;2.93;;;13.30;95.80;;;;;;5039954;28;20537;-83
2020/12/19 12:34:58;;;;;;;4.60;2.70;;;13.40;95.60;;;;;;5038710;28;20801;-84
2020/12/19 12:37:24;;;;;;;5.80;3.20;;;13.30;95.50;;;;;;5039417;28;20468;-85
2020/12/19 12:39:52;;;;;;;5.33;2.60;;;13.30;95.60;;;;;;5037367;28;20508;-83
2020/12/19 12:42:20;;;;;;;5.87;2.23;;;13.30;95.50;;;;;;5040292;28;21160;-84
2020/12/19 12:44:47;;;;;;;4.27;2.63;;;13.30;95.40;;;;;;5038406;28;20457;-83
2020/12/19 12:47:13;;;;;;;4.10;2.47;;;13.30;95.30;;;;;;5038826;28;20461;-84
2020/12/19 12:49:40;;;;;;;4.67;2.50;;;13.30;95.20;;;;;;5053621;28;20933;-84
2020/12/19 12:52:07;;;;;;;5.80;3.07;;;13.40;94.90;;;;;;5044015;28;20467;-84
2020/12/19 12:54:33;;;;;;;6.73;2.60;;;13.40;94.80;;;;;;5045986;28;20457;-83